Time;durP1;ratioP1;P1;durP2;ratioP2;P2;SDS_P1;SDS_P2;PMS_P1;PMS_P2;Temp;Humidity;BMP_temperature;BMP_pressure;BME280_temperature;BME280_humidity;BME280_pressure;Samples;Min_cycle;Max_cycle;Signal;HPM_P1;HPM_P2
2024/02/19 00:03:58;;;;;;;13.70;9.30;;;;;;;0.39;78.17;100600.05;218552;1257;140256;-71
2024/02/19 00:09:02;;;;;;;17.80;11.50;;;;;;;0.36;78.38;100590.83;218435;1260;140202;-67
2024/02/19 00:14:06;;;;;;;16.70;11.20;;;;;;;0.33;78.29;100591.65;217888;1262;140435;-68
2024/02/19 02:07:07;;;;;;;16.20;11.00;;;;;;;0.16;79.30;100389.52;218668;1261;243975;-71
2024/02/19 02:12:12;;;;;;;15.00;10.10;;;;;;;0.13;79.76;100373.19;218619;1258;140188;-70
2024/02/19 02:17:16;;;;;;;15.70;10.60;;;;;;;0.11;79.37;100369.75;217223;1258;141234;-74
2024/02/19 02:22:19;;;;;;;17.30;11.10;;;;;;;0.09;79.68;100361.52;217432;1257;140899;-70
2024/02/19 02:27:23;;;;;;;14.00;9.50;;;;;;;0.07;79.97;100359.88;217633;1257;139600;-71
2024/02/19 02:32:28;;;;;;;16.40;11.70;;;;;;;0.05;79.79;100343.07;217640;1261;140541;-72
2024/02/19 02:37:32;;;;;;;18.80;11.80;;;;;;;0.06;79.81;100337.95;218023;1257;140277;-73
2024/02/19 02:42:36;;;;;;;18.40;11.20;;;;;;;0.06;79.94;100326.53;217590;1257;141187;-73
2024/02/19 02:47:40;;;;;;;17.80;10.20;;;;;;;0.05;80.33;100312.36;217167;1257;140865;-71
2024/02/19 02:52:47;;;;;;;15.90;10.10;;;;;;;0.04;80.36;100301.02;218121;1259;140375;-74
2024/02/19 02:57:50;;;;;;;19.70;11.70;;;;;;;0.08;80.74;100293.29;217619;1259;140781;-74
2024/02/19 03:02:55;;;;;;;19.20;9.70;;;;;;;0.10;80.51;100281.08;218322;1262;140914;-70
2024/02/19 03:07:59;;;;;;;16.20;10.30;;;;;;;0.13;80.45;100268.65;217937;1259;141991;-74
2024/02/19 03:13:03;;;;;;;21.70;12.60;;;;;;;0.16;80.67;100255.64;218296;1257;140158;-72
2024/02/19 03:18:08;;;;;;;18.20;11.50;;;;;;;0.21;80.67;100247.80;218325;1257;140197;-72
2024/02/19 03:23:13;;;;;;;21.30;13.00;;;;;;;0.23;80.86;100237.85;218080;1259;140231;-72
2024/02/19 03:28:18;;;;;;;21.70;13.00;;;;;;;0.23;80.76;100223.63;218418;1256;140888;-71
2024/02/19 03:33:29;;;;;;;21.20;13.00;;;;;;;0.24;80.99;100217.09;218346;1257;140981;-72
2024/02/19 03:38:36;;;;;;;21.30;12.40;;;;;;;0.28;81.07;100215.80;220296;1257;142556;-73
2024/02/19 03:43:41;;;;;;;21.30;15.30;;;;;;;0.33;80.95;100205.66;219285;1256;140675;-73
2024/02/19 03:48:46;;;;;;;21.80;13.00;;;;;;;0.37;81.18;100195.42;219770;1257;141366;-73
2024/02/19 03:53:51;;;;;;;15.50;11.70;;;;;;;0.41;81.13;100195.05;217145;1260;139867;-73
2024/02/19 03:58:56;;;;;;;25.00;14.60;;;;;;;0.42;80.91;100184.59;217810;1257;140847;-71
2024/02/19 04:04:00;;;;;;;19.40;12.60;;;;;;;0.42;80.92;100175.38;217470;1260;139859;-72
2024/02/19 04:09:05;;;;;;;23.20;14.00;;;;;;;0.44;81.43;100163.06;218435;1257;140054;-72
2024/02/19 04:14:09;;;;;;;27.50;14.80;;;;;;;0.45;81.41;100155.48;217252;1261;140762;-72
2024/02/19 04:19:16;;;;;;;25.30;13.70;;;;;;;0.49;81.55;100148.27;217439;1257;140808;-71
2024/02/19 04:24:21;;;;;;;29.00;15.90;;;;;;;0.50;81.34;100129.97;217966;1259;140073;-72
2024/02/19 04:29:25;;;;;;;30.70;17.90;;;;;;;0.47;81.26;100118.75;217765;1257;140079;-72
2024/02/19 04:34:30;;;;;;;21.10;13.30;;;;;;;0.46;81.70;100132.84;217249;1257;141691;-71
2024/02/19 04:39:36;;;;;;;24.90;13.40;;;;;;;0.46;81.53;100122.13;217303;1257;282564;-72
2024/02/19 04:44:40;;;;;;;30.40;17.10;;;;;;;0.47;81.62;100114.06;217481;1257;140537;-72
2024/02/19 04:49:46;;;;;;;26.50;17.30;;;;;;;0.48;81.98;100110.63;217424;1257;140178;-72
2024/02/19 04:54:50;;;;;;;25.10;15.50;;;;;;;0.51;81.64;100103.59;218198;1259;141771;-73
2024/02/19 04:59:55;;;;;;;27.70;15.50;;;;;;;0.53;81.71;100100.45;217425;1257;141497;-71
2024/02/19 05:04:59;;;;;;;27.00;15.00;;;;;;;0.53;82.05;100095.69;217850;1260;140486;-71
2024/02/19 05:10:04;;;;;;;26.50;16.20;;;;;;;0.54;82.05;100090.55;217978;1257;139814;-74
2024/02/19 05:15:09;;;;;;;21.40;14.00;;;;;;;0.56;81.89;100083.17;217627;1257;140871;-72
2024/02/19 05:20:14;;;;;;;23.90;13.70;;;;;;;0.60;82.20;100070.64;217475;1257;140970;-71
2024/02/19 05:25:18;;;;;;;31.60;16.20;;;;;;;0.65;82.48;100067.52;219925;1257;141285;-73
2024/02/19 05:30:24;;;;;;;24.60;15.50;;;;;;;0.70;82.34;100065.07;220241;1257;140463;-73
2024/02/19 05:35:28;;;;;;;25.50;15.10;;;;;;;0.75;82.14;100059.40;219867;1257;140191;-73
2024/02/19 05:40:32;;;;;;;25.30;13.70;;;;;;;0.80;82.11;100053.50;218103;1260;141777;-72
2024/02/19 05:45:36;;;;;;;29.20;19.10;;;;;;;0.85;82.06;100047.02;217871;1257;140617;-73
2024/02/19 05:50:41;;;;;;;27.70;16.60;;;;;;;0.88;82.19;100045.20;218835;1257;140112;-72
2024/02/19 05:55:45;;;;;;;27.70;16.20;;;;;;;0.94;82.48;100043.96;217983;1257;140574;-72
2024/02/19 06:00:50;;;;;;;19.60;13.60;;;;;;;1.03;82.56;100044.55;217369;1260;141977;-72
2024/02/19 06:05:55;;;;;;;25.50;16.00;;;;;;;1.10;82.61;100041.64;218054;1257;140042;-74
2024/02/19 06:11:03;;;;;;;25.90;15.10;;;;;;;1.18;82.61;100036.71;217275;1257;141047;-72
2024/02/19 06:16:08;;;;;;;24.50;15.20;;;;;;;1.22;82.62;100034.52;218510;1260;140569;-71
2024/02/19 06:21:12;;;;;;;25.20;14.70;;;;;;;1.26;83.17;100030.89;217529;1261;140315;-72
2024/02/19 06:26:17;;;;;;;30.50;15.90;;;;;;;1.30;83.19;100019.96;217359;1257;140104;-72
2024/02/19 06:31:27;;;;;;;26.40;15.20;;;;;;;1.38;83.46;100018.60;217295;1257;140750;-74
2024/02/19 06:36:32;;;;;;;25.70;15.30;;;;;;;1.45;83.77;100013.27;218349;1257;140366;-71
2024/02/19 06:41:36;;;;;;;26.80;16.40;;;;;;;1.50;83.97;100011.81;218493;1257;140223;-70
2024/02/19 06:46:41;;;;;;;28.40;16.00;;;;;;;1.55;84.08;100007.18;217475;1257;140055;-70
2024/02/19 06:51:45;;;;;;;26.00;17.20;;;;;;;1.60;84.36;100009.79;218174;1257;141040;-71
2024/02/19 06:56:49;;;;;;;30.60;14.90;;;;;;;1.62;84.70;100005.05;217342;1257;141144;-71
2024/02/19 07:01:54;;;;;;;28.40;16.10;;;;;;;1.62;84.51;99999.40;217289;1261;141705;-73
2024/02/19 07:06:58;;;;;;;28.20;17.50;;;;;;;1.62;84.97;99998.06;217482;1257;140316;-71
2024/02/19 07:12:03;;;;;;;35.10;17.90;;;;;;;1.66;85.29;99992.73;218225;1260;141128;-71
2024/02/19 07:17:07;;;;;;;28.90;16.60;;;;;;;1.72;85.27;99989.65;220338;1257;140572;-72
2024/02/19 07:22:11;;;;;;;30.00;19.30;;;;;;;1.75;85.43;99990.98;220265;1257;140770;-71
2024/02/19 07:27:16;;;;;;;28.10;15.50;;;;;;;1.81;85.65;99986.48;220207;1257;140435;-72
2024/02/19 07:32:21;;;;;;;29.00;17.00;;;;;;;1.87;85.66;99981.22;218007;1257;141534;-72
2024/02/19 07:37:26;;;;;;;31.10;17.70;;;;;;;1.94;85.89;99973.92;217543;1257;139701;-71
2024/02/19 07:42:31;;;;;;;25.80;16.70;;;;;;;2.05;86.27;99963.38;217540;1257;140722;-72
2024/02/19 07:47:35;;;;;;;26.80;17.70;;;;;;;2.17;86.49;99959.73;217523;1261;140770;-72
2024/02/19 07:52:43;;;;;;;27.20;16.90;;;;;;;2.27;86.86;99947.54;218284;1257;140375;-72
2024/02/19 07:57:47;;;;;;;26.70;15.90;;;;;;;2.38;86.99;99936.64;217964;1260;140771;-71
2024/02/19 08:02:52;;;;;;;25.70;15.10;;;;;;;2.48;87.49;99927.92;217543;1261;141122;-75
2024/02/19 08:07:58;;;;;;;29.40;17.50;;;;;;;2.59;87.33;99926.12;217801;1257;140498;-73
2024/02/19 08:13:03;;;;;;;29.90;18.10;;;;;;;2.67;87.49;99915.57;217414;1257;141459;-73
2024/02/19 08:18:08;;;;;;;25.10;15.40;;;;;;;2.74;87.47;99911.73;217400;1257;139442;-72
2024/02/19 08:23:13;;;;;;;29.00;18.10;;;;;;;2.79;87.80;99903.39;217505;1261;140700;-70
2024/02/19 08:28:17;;;;;;;33.20;16.40;;;;;;;2.93;88.03;99901.41;217463;1257;140282;-73
2024/02/19 08:33:23;;;;;;;20.80;14.10;;;;;;;3.09;88.13;99904.90;217496;1261;140412;-73
2024/02/19 08:38:28;;;;;;;27.90;17.00;;;;;;;3.22;88.01;99898.80;217483;1261;141121;-72
2024/02/19 08:43:32;;;;;;;34.90;19.80;;;;;;;3.33;88.06;99890.67;217338;1257;140674;-72
2024/02/19 08:48:37;;;;;;;29.00;18.00;;;;;;;3.36;88.00;99880.48;217488;1259;139865;-72
2024/02/19 08:53:42;;;;;;;30.80;18.80;;;;;;;3.33;88.18;99883.71;217805;1257;140785;-72
2024/02/19 08:58:47;;;;;;;29.00;16.50;;;;;;;3.31;88.31;99881.94;217501;1257;140148;-71
2024/02/19 09:03:51;;;;;;;31.50;18.20;;;;;;;3.31;88.59;99875.41;217421;1261;139850;-72
2024/02/19 09:08:56;;;;;;;31.80;18.40;;;;;;;3.30;88.93;99868.11;217391;1262;140282;-72
2024/02/19 09:14:02;;;;;;;33.20;18.70;;;;;;;3.31;89.01;99867.11;220160;1257;140226;-73
2024/02/19 09:19:08;;;;;;;31.80;18.50;;;;;;;3.34;89.24;99866.65;219080;1256;140060;-75
2024/02/19 09:24:14;;;;;;;35.70;20.60;;;;;;;3.40;89.44;99857.29;217804;1257;140232;-73
2024/02/19 09:29:18;;;;;;;33.10;17.70;;;;;;;3.50;89.85;99853.73;219051;1259;140892;-73
2024/02/19 09:34:23;;;;;;;27.60;18.40;;;;;;;3.61;90.05;99853.65;217687;1257;140452;-72
2024/02/19 09:39:28;;;;;;;33.10;19.30;;;;;;;3.73;90.22;99843.21;217573;1261;140015;-73
2024/02/19 09:44:33;;;;;;;36.40;20.10;;;;;;;3.81;90.39;99843.66;218229;1260;140362;-73
2024/02/19 09:49:37;;;;;;;34.40;21.60;;;;;;;3.85;90.54;99844.40;217461;1257;140690;-73
2024/02/19 09:54:43;;;;;;;28.40;16.80;;;;;;;3.95;90.58;99846.52;217452;1257;140996;-72
2024/02/19 09:59:51;;;;;;;28.50;20.00;;;;;;;4.04;90.76;99840.79;218253;1260;140991;-72
2024/02/19 10:04:55;;;;;;;36.70;21.60;;;;;;;4.08;90.63;99835.06;217444;1257;140897;-73
2024/02/19 10:10:03;;;;;;;31.60;19.80;;;;;;;4.12;90.55;99829.61;217456;1261;139871;-72
2024/02/19 10:15:08;;;;;;;30.90;20.20;;;;;;;4.19;90.84;99826.84;217529;1258;140570;-71
2024/02/19 10:20:13;;;;;;;36.60;20.10;;;;;;;4.25;91.06;99821.83;217521;1261;140010;-72
2024/02/19 10:25:17;;;;;;;26.30;16.30;;;;;;;4.33;91.34;99818.33;217578;1261;139806;-73
2024/02/19 10:30:23;;;;;;;32.70;18.80;;;;;;;4.41;91.23;99811.65;217496;1257;140276;-75
2024/02/19 10:35:28;;;;;;;43.10;18.50;;;;;;;4.49;91.45;99809.55;217460;1260;139966;-73
2024/02/19 10:40:33;;;;;;;23.10;15.70;;;;;;;4.54;91.67;99803.95;217375;1261;140681;-73
2024/02/19 10:45:38;;;;;;;28.00;17.50;;;;;;;4.61;92.11;99787.80;218610;1261;140364;-72
2024/02/19 10:50:47;;;;;;;30.30;19.80;;;;;;;4.79;92.45;99782.42;218911;1260;140419;-72
2024/02/19 10:55:59;;;;;;;28.50;16.20;;;;;;;5.08;92.64;99781.61;217475;1256;140295;-72
2024/02/19 11:01:07;;;;;;;20.60;14.20;;;;;;;5.31;92.55;99771.91;217315;1257;141247;-73
2024/02/19 11:06:13;;;;;;;23.70;16.80;;;;;;;5.39;92.22;99763.77;217440;1261;140131;-73
2024/02/19 11:11:21;;;;;;;26.60;15.60;;;;;;;5.42;92.33;99760.73;219622;1260;140303;-73
2024/02/19 11:16:28;;;;;;;;;;;;;;;5.45;91.95;99754.99;220035;1257;140266;-73
2024/02/19 11:21:33;;;;;;;30.60;16.90;;;;;;;5.48;92.15;99743.34;218774;1260;126353;-72
2024/02/19 11:26:42;;;;;;;22.00;12.40;;;;;;;5.58;92.58;99739.50;217415;1257;140222;-73
2024/02/19 11:31:46;;;;;;;24.10;12.50;;;;;;;5.66;92.67;99734.71;218321;1262;140893;-73
2024/02/19 11:36:50;;;;;;;21.00;13.30;;;;;;;5.72;92.50;99720.76;217734;1262;140097;-72
2024/02/19 11:41:54;;;;;;;22.50;14.90;;;;;;;5.80;92.73;99715.11;217467;1257;139797;-73
2024/02/19 11:46:59;;;;;;;29.20;14.90;;;;;;;5.91;92.78;99709.30;218041;1261;139838;-73
2024/02/19 11:52:06;;;;;;;19.40;14.20;;;;;;;5.98;92.56;99702.18;217618;1260;140119;-72
2024/02/19 11:57:15;;;;;;;17.70;11.20;;;;;;;6.00;92.84;99691.60;218798;1257;140690;-74
2024/02/19 12:02:20;;;;;;;21.20;13.60;;;;;;;6.04;92.70;99695.13;217826;1257;141214;-72
2024/02/19 12:07:26;;;;;;;23.40;14.80;;;;;;;6.08;92.21;99683.20;217632;1260;140060;-73
2024/02/19 12:12:40;;;;;;;18.60;13.80;;;;;;;6.14;92.60;99673.92;217794;1262;141298;-73
2024/02/19 12:17:48;;;;;;;19.70;12.90;;;;;;;6.22;93.39;99672.16;217499;1257;141203;-73
2024/02/19 12:22:53;;;;;;;17.50;11.60;;;;;;;6.30;92.92;99664.61;218097;1261;140027;-72
2024/02/19 12:27:58;;;;;;;17.50;11.80;;;;;;;6.43;93.24;99656.25;217451;1261;142839;-72
2024/02/19 12:33:03;;;;;;;14.70;10.60;;;;;;;6.57;93.21;99648.53;217363;1262;140048;-74
2024/02/19 12:38:09;;;;;;;17.00;11.90;;;;;;;6.61;93.13;99651.98;217983;1259;139753;-73
2024/02/19 12:43:17;;;;;;;15.80;11.10;;;;;;;6.67;93.47;99648.34;217481;1262;140017;-73
2024/02/19 12:48:22;;;;;;;19.70;10.60;;;;;;;6.73;93.46;99645.27;217894;1260;140239;-72
2024/02/19 12:53:30;;;;;;;13.90;10.40;;;;;;;6.75;93.58;99639.95;217590;1260;140904;-73
2024/02/19 12:58:35;;;;;;;;;;;;;;;6.76;93.71;99637.25;217433;1262;140675;-73
2024/02/19 13:03:40;;;;;;;6.60;4.60;;;;;;;6.80;93.95;99633.13;217894;1260;125992;-75
2024/02/19 13:08:46;;;;;;;5.60;3.70;;;;;;;6.84;94.05;99639.22;217489;1262;142283;-72
2024/02/19 13:13:51;;;;;;;4.30;3.50;;;;;;;6.85;94.18;99634.73;220317;1257;140139;-73
2024/02/19 13:18:55;;;;;;;4.10;3.20;;;;;;;6.84;94.06;99633.23;219994;1257;140602;-72
2024/02/19 13:24:00;;;;;;;3.00;2.20;;;;;;;6.86;93.80;99634.15;217393;1257;139663;-72
2024/02/19 13:29:04;;;;;;;3.00;2.20;;;;;;;6.85;94.06;99641.46;218082;1261;139892;-72
2024/02/19 13:34:09;;;;;;;2.00;1.80;;;;;;;6.80;94.04;99637.29;217644;1260;139916;-73
2024/02/19 13:39:15;;;;;;;3.10;2.30;;;;;;;6.79;93.97;99641.77;218597;1257;140661;-72
2024/02/19 13:44:20;;;;;;;4.90;3.10;;;;;;;6.73;94.17;99643.27;217369;1257;141184;-71
2024/02/19 13:49:25;;;;;;;1.80;1.70;;;;;;;6.69;94.17;99652.69;217383;1258;140135;-73
2024/02/19 13:54:30;;;;;;;2.00;1.80;;;;;;;6.65;94.29;99653.02;217933;1257;140727;-75
2024/02/19 13:59:34;;;;;;;8.20;7.70;;;;;;;6.63;94.29;99654.46;217338;1261;140182;-72
2024/02/19 14:04:38;;;;;;;4.00;3.50;;;;;;;6.62;94.27;99653.56;217606;1260;140613;-72
2024/02/19 14:09:43;;;;;;;3.30;3.00;;;;;;;6.63;94.50;99659.27;217551;1260;139601;-73
2024/02/19 14:14:47;;;;;;;2.60;2.40;;;;;;;6.60;94.17;99667.67;217157;1257;139887;-73
2024/02/19 14:19:51;;;;;;;1.90;1.80;;;;;;;6.55;93.72;99669.44;217364;1257;140577;-74
2024/02/19 14:24:56;;;;;;;1.70;1.60;;;;;;;6.45;93.38;99674.12;217306;1258;139320;-73
2024/02/19 14:30:00;;;;;;;3.00;1.70;;;;;;;6.38;93.49;99676.89;217151;1258;141367;-74
2024/02/19 14:35:05;;;;;;;1.50;1.40;;;;;;;6.29;93.04;99680.48;217510;1257;140622;-72
2024/02/19 14:40:17;;;;;;;1.30;1.20;;;;;;;6.26;93.17;99687.66;218345;1257;140303;-73
2024/02/19 14:45:22;;;;;;;2.20;1.20;;;;;;;6.20;92.96;99696.39;217641;1257;139577;-73
2024/02/19 14:50:25;;;;;;;1.20;0.90;;;;;;;6.08;93.21;99707.10;217870;1257;139570;-75
2024/02/19 14:55:29;;;;;;;0.90;0.70;;;;;;;5.96;93.01;99710.89;217549;1260;139683;-73
2024/02/19 15:00:35;;;;;;;1.70;0.70;;;;;;;5.88;93.23;99717.64;218453;1257;139767;-74
2024/02/19 15:05:39;;;;;;;0.60;0.60;;;;;;;5.84;93.26;99718.38;217783;1257;139831;-76
2024/02/19 15:10:43;;;;;;;1.90;0.70;;;;;;;5.83;93.20;99717.66;218533;1257;140258;-73
2024/02/19 15:15:48;;;;;;;1.00;1.00;;;;;;;5.82;93.17;99717.04;219010;1257;139599;-74
2024/02/19 15:20:52;;;;;;;2.10;1.40;;;;;;;5.83;93.18;99718.09;217784;1257;140089;-72
2024/02/19 15:25:57;;;;;;;3.60;1.60;;;;;;;5.80;93.39;99721.17;217274;1258;140321;-75
2024/02/19 15:31:04;;;;;;;1.60;1.50;;;;;;;5.76;93.35;99721.54;218766;1260;141396;-73
2024/02/19 15:36:10;;;;;;;4.30;3.40;;;;;;;5.70;93.16;99726.66;217412;1257;140642;-75
2024/02/19 15:41:17;;;;;;;2.50;2.00;;;;;;;5.68;93.73;99731.98;217582;1260;140625;-74
2024/02/19 15:46:22;;;;;;;2.80;2.60;;;;;;;5.67;94.17;99734.59;217386;1258;140131;-75
2024/02/19 15:51:29;;;;;;;3.50;3.20;;;;;;;5.65;94.05;99736.22;217522;1257;139193;-74
2024/02/19 15:56:33;;;;;;;3.50;3.20;;;;;;;5.65;93.84;99735.28;217348;1260;140411;-74
2024/02/19 16:01:37;;;;;;;2.50;2.20;;;;;;;5.65;93.99;99744.27;217341;1257;139904;-74
2024/02/19 16:06:42;;;;;;;3.60;3.30;;;;;;;5.66;94.12;99744.89;217085;1260;139604;-75
2024/02/19 16:11:51;;;;;;;3.50;3.20;;;;;;;5.64;94.36;99749.36;217293;1260;139486;-74
2024/02/19 16:16:56;;;;;;;4.10;3.00;;;;;;;5.63;94.33;99755.14;217222;1258;141725;-74
2024/02/19 16:22:00;;;;;;;2.70;2.60;;;;;;;5.62;94.41;99766.20;218467;1257;140841;-74
2024/02/19 16:27:05;;;;;;;2.80;2.00;;;;;;;5.63;94.04;99771.45;217355;1260;139361;-74
2024/02/19 16:32:09;;;;;;;2.20;2.00;;;;;;;5.61;93.77;99779.83;217535;1258;139625;-74
2024/02/19 16:37:13;;;;;;;2.50;2.20;;;;;;;5.57;94.10;99786.04;216832;1257;498543;-74
2024/02/19 16:42:18;;;;;;;3.70;3.00;;;;;;;5.56;94.00;99794.29;217218;1257;139721;-74
2024/02/19 16:47:22;;;;;;;2.00;1.90;;;;;;;5.51;93.95;99808.12;219415;1257;139916;-73
2024/02/19 16:52:27;;;;;;;3.90;2.00;;;;;;;5.47;93.64;99822.94;220305;1257;140743;-74
2024/02/19 16:57:32;;;;;;;1.70;1.50;;;;;;;5.40;92.81;99836.13;220149;1257;140497;-74
2024/02/19 17:02:37;;;;;;;2.50;1.70;;;;;;;5.31;92.61;99839.38;217337;1257;139859;-74
2024/02/19 17:07:42;;;;;;;3.60;1.50;;;;;;;5.26;92.67;99842.65;217127;1257;141096;-74
2024/02/19 17:12:46;;;;;;;2.80;1.50;;;;;;;5.22;93.03;99846.25;217317;1257;140699;-74
2024/02/19 17:17:50;;;;;;;4.50;1.40;;;;;;;5.15;92.81;99844.85;217180;1258;141117;-74
2024/02/19 17:22:55;;;;;;;1.60;1.50;;;;;;;5.09;92.83;99844.86;217215;1257;140687;-74
2024/02/19 17:28:00;;;;;;;2.20;1.80;;;;;;;5.04;93.16;99850.45;217259;1257;141488;-74
2024/02/19 17:33:04;;;;;;;2.10;1.80;;;;;;;4.99;93.23;99858.95;217405;1260;140131;-74
2024/02/19 17:38:08;;;;;;;3.10;1.60;;;;;;;4.94;93.02;99863.68;217127;1260;140487;-75
2024/02/19 17:43:12;;;;;;;2.40;2.10;;;;;;;4.91;93.20;99864.23;217210;1257;140753;-74
2024/02/19 17:48:16;;;;;;;4.80;2.00;;;;;;;4.93;93.38;99867.01;217753;1257;139577;-74
2024/02/19 17:53:21;;;;;;;2.40;2.10;;;;;;;4.91;93.24;99870.27;217346;1257;141084;-74
2024/02/19 17:58:26;;;;;;;2.10;2.00;;;;;;;4.89;93.45;99871.84;217986;1257;140312;-74
2024/02/19 18:03:29;;;;;;;2.10;1.60;;;;;;;4.91;93.25;99880.68;217160;1257;140344;-74
2024/02/19 18:08:35;;;;;;;4.50;2.10;;;;;;;4.88;93.30;99880.36;217271;1257;139897;-76
2024/02/19 18:13:40;;;;;;;2.60;2.10;;;;;;;4.86;93.28;99876.45;217315;1257;139917;-73
2024/02/19 18:18:45;;;;;;;3.70;1.80;;;;;;;4.86;93.42;99882.52;217488;1257;139854;-75
2024/02/19 18:23:50;;;;;;;2.70;1.90;;;;;;;4.88;93.47;99884.78;217074;1258;139722;-75
2024/02/19 18:28:55;;;;;;;3.10;2.50;;;;;;;4.85;93.54;99888.10;217285;1257;139883;-75
2024/02/19 18:34:02;;;;;;;2.30;2.20;;;;;;;4.84;93.56;99888.67;217601;1260;139854;-75
2024/02/19 18:39:08;;;;;;;3.50;2.10;;;;;;;4.85;93.75;99899.53;217532;1257;140644;-76
2024/02/19 18:44:13;;;;;;;4.30;3.10;;;;;;;4.84;93.78;99892.86;217262;1257;140045;-75
2024/02/19 18:49:20;;;;;;;3.40;2.50;;;;;;;4.82;93.69;99898.29;217337;1257;141275;-75
2024/02/19 18:54:30;;;;;;;2.30;2.10;;;;;;;4.80;93.95;99899.65;217203;1258;139835;-76
2024/02/19 18:59:37;;;;;;;3.50;3.20;;;;;;;4.81;93.92;99903.80;217026;1257;139538;-76
2024/02/19 19:04:45;;;;;;;2.80;2.60;;;;;;;4.83;94.03;99909.06;217646;1257;140478;-75
2024/02/19 19:09:50;;;;;;;3.80;2.00;;;;;;;4.81;93.99;99916.23;217384;1259;140459;-75
2024/02/19 19:14:54;;;;;;;2.40;2.20;;;;;;;4.79;93.79;99920.90;217737;1257;140883;-75
2024/02/19 19:19:58;;;;;;;2.90;2.70;;;;;;;4.77;93.62;99921.57;217335;1257;139933;-75
2024/02/19 19:25:02;;;;;;;3.70;2.60;;;;;;;4.74;93.69;99928.58;217298;1259;140798;-74
2024/02/19 19:30:08;;;;;;;3.60;3.30;;;;;;;4.73;93.37;99934.73;217545;1257;139185;-74
2024/02/19 19:35:14;;;;;;;2.90;2.70;;;;;;;4.69;93.24;99939.09;217994;1259;140026;-74
2024/02/19 19:40:18;;;;;;;6.20;4.30;;;;;;;4.69;93.28;99942.14;217222;1257;139758;-73
2024/02/19 19:45:23;;;;;;;4.70;3.40;;;;;;;4.66;93.29;99948.20;217411;1257;140491;-73
2024/02/19 19:50:27;;;;;;;4.20;3.80;;;;;;;4.67;93.04;99945.45;217337;1257;140776;-75
2024/02/19 19:55:31;;;;;;;4.00;3.60;;;;;;;4.65;93.18;99949.13;217275;1260;140463;-76
2024/02/19 20:00:36;;;;;;;5.00;4.40;;;;;;;4.63;92.70;99947.05;217561;1257;140455;-76
2024/02/19 20:05:40;;;;;;;5.80;5.00;;;;;;;4.64;92.67;99950.46;217396;1260;140076;-74
2024/02/19 20:10:43;;;;;;;7.30;5.50;;;;;;;4.63;92.51;99957.94;217305;1257;140874;-74
2024/02/19 20:15:48;;;;;;;5.00;4.50;;;;;;;4.65;92.74;99956.84;217416;1257;139350;-74
2024/02/19 20:20:53;;;;;;;6.30;4.90;;;;;;;4.66;92.42;99961.98;217560;1259;139867;-73
2024/02/19 20:25:58;;;;;;;5.40;4.90;;;;;;;4.64;92.67;99971.39;217300;1257;139125;-74
2024/02/19 20:31:05;;;;;;;7.30;3.70;;;;;;;4.65;92.43;99976.67;217441;1260;139021;-74
2024/02/19 20:36:11;;;;;;;6.10;4.30;;;;;;;4.64;92.22;99980.48;219134;1257;139693;-75
2024/02/19 20:41:15;;;;;;;3.80;3.40;;;;;;;4.66;92.31;99984.20;220142;1257;141436;-76
2024/02/19 20:46:21;;;;;;;5.10;3.20;;;;;;;4.70;92.14;99986.18;219416;1257;141685;-75
2024/02/19 20:51:26;;;;;;;4.20;3.00;;;;;;;4.72;92.08;99992.79;218112;1257;139623;-75
2024/02/19 20:56:31;;;;;;;4.40;4.10;;;;;;;4.73;91.99;99997.02;217424;1257;207727;-76
2024/02/19 21:01:37;;;;;;;4.00;2.60;;;;;;;4.75;92.15;99998.91;218204;1257;140624;-76
2024/02/19 21:06:42;;;;;;;3.20;2.90;;;;;;;4.76;92.35;100006.92;217217;1257;139934;-75
2024/02/19 21:11:46;;;;;;;4.00;2.80;;;;;;;4.76;92.25;100015.20;217014;1263;142385;-74
2024/02/19 21:16:51;;;;;;;6.40;4.20;;;;;;;4.72;92.58;100012.16;217151;1259;139958;-75
2024/02/19 21:21:55;;;;;;;5.20;4.00;;;;;;;4.69;92.61;100010.67;217218;1257;141009;-75
2024/02/19 21:27:00;;;;;;;3.50;3.20;;;;;;;4.67;92.97;100009.52;217148;1257;139728;-74
2024/02/19 21:32:06;;;;;;;4.20;3.80;;;;;;;4.67;93.09;100011.22;217015;1257;140896;-75
2024/02/19 21:37:12;;;;;;;4.60;2.90;;;;;;;4.68;93.52;100007.58;217263;1262;140106;-74
2024/02/19 21:42:16;;;;;;;3.00;2.80;;;;;;;4.67;93.43;100007.11;217212;1259;139535;-75
2024/02/19 21:47:26;;;;;;;2.70;2.50;;;;;;;4.67;93.69;100004.64;217119;1260;141441;-75
2024/02/19 21:52:31;;;;;;;2.90;2.60;;;;;;;4.65;93.78;100000.67;217021;1258;140077;-74
2024/02/19 21:57:37;;;;;;;5.60;3.00;;;;;;;4.65;94.12;100002.76;217133;1259;141703;-75
2024/02/19 22:02:41;;;;;;;3.50;3.00;;;;;;;4.67;94.17;99999.65;217230;1262;139994;-74
2024/02/19 22:07:46;;;;;;;3.60;3.30;;;;;;;4.69;94.20;99999.59;217351;1262;140849;-74
2024/02/19 22:12:51;;;;;;;4.60;4.20;;;;;;;4.70;94.18;100000.77;217385;1260;140101;-74
2024/02/19 22:17:55;;;;;;;6.40;4.30;;;;;;;4.68;94.36;100000.07;217335;1260;139908;-75
2024/02/19 22:23:00;;;;;;;5.10;4.40;;;;;;;4.70;94.64;99999.84;218231;1257;141671;-75
2024/02/19 22:28:04;;;;;;;5.50;4.20;;;;;;;4.72;94.91;99994.90;217286;1257;139778;-74
2024/02/19 22:33:09;;;;;;;6.30;5.40;;;;;;;4.76;94.84;99993.35;218944;1257;139651;-74
2024/02/19 22:38:13;;;;;;;6.00;5.30;;;;;;;4.79;95.20;100000.70;219456;1257;139626;-75
2024/02/19 22:43:17;;;;;;;5.30;4.80;;;;;;;4.84;95.16;99997.61;217221;1257;139841;-75
2024/02/19 22:48:20;;;;;;;9.30;6.40;;;;;;;4.89;94.90;99995.08;217413;1260;141992;-76
2024/02/19 22:53:24;;;;;;;5.30;4.80;;;;;;;4.91;95.28;99997.92;217269;1257;140944;-75
2024/02/19 22:58:29;;;;;;;7.50;6.30;;;;;;;4.94;95.27;99998.27;217344;1257;139941;-75
2024/02/19 23:03:37;;;;;;;5.00;4.60;;;;;;;4.96;95.21;100004.91;217504;1257;140390;-76
2024/02/19 23:08:42;;;;;;;5.00;4.60;;;;;;;4.98;95.38;100008.84;218300;1257;141354;-74
2024/02/19 23:13:46;;;;;;;6.40;4.80;;;;;;;5.04;95.33;100008.84;217382;1257;142414;-73
2024/02/19 23:18:50;;;;;;;5.70;5.20;;;;;;;5.09;95.62;100010.48;217307;1260;139791;-74
2024/02/19 23:23:54;;;;;;;7.00;6.40;;;;;;;5.14;95.61;100008.04;217399;1260;141816;-73
2024/02/19 23:28:58;;;;;;;4.90;4.20;;;;;;;5.17;95.28;100013.22;217460;1257;140176;-73
2024/02/19 23:34:01;;;;;;;3.80;3.40;;;;;;;5.19;95.21;100003.11;217345;1260;140009;-74
2024/02/19 23:39:06;;;;;;;4.30;3.90;;;;;;;5.21;95.18;100004.45;217691;1257;142172;-74
2024/02/19 23:44:11;;;;;;;4.90;3.10;;;;;;;5.22;95.30;100006.57;217425;1257;139857;-75
2024/02/19 23:49:14;;;;;;;3.30;3.10;;;;;;;5.24;95.21;100006.34;217410;1257;139965;-74
2024/02/19 23:54:19;;;;;;;4.60;2.70;;;;;;;5.24;94.98;100003.16;217583;1257;139929;-74
2024/02/19 23:59:24;;;;;;;2.80;2.40;;;;;;;5.24;94.95;100006.78;217951;1260;140777;-75
